createdAt,value
2019-05-18T00:00:02.984Z,56.47
2019-05-18T00:05:02.831Z,56.56
2019-05-18T00:10:03.363Z,56.6
2019-05-18T00:15:02.904Z,56.66
2019-05-18T00:20:03.433Z,56.67
2019-05-18T00:25:02.949Z,56.71
2019-05-18T00:30:03.414Z,56.72
2019-05-18T00:35:02.915Z,56.77
2019-05-18T00:40:03.367Z,56.76
2019-05-18T00:45:02.891Z,56.78
2019-05-18T00:50:03.441Z,56.84
2019-05-18T00:55:02.915Z,56.9
2019-05-18T01:00:03.419Z,56.92
2019-05-18T01:05:02.917Z,56.94
2019-05-18T01:10:03.363Z,56.94
2019-05-18T01:15:02.887Z,56.93
2019-05-18T01:20:03.429Z,56.94
2019-05-18T01:25:02.947Z,57.02
2019-05-18T01:30:02.628Z,56.99
2019-05-18T01:35:02.369Z,57.01
2019-05-18T01:40:02.935Z,57.01
2019-05-18T01:45:15.868Z,57.06
2019-05-18T01:50:02.765Z,57.05
2019-05-18T01:55:03.248Z,57.08
2019-05-18T02:00:02.901Z,57.05
2019-05-18T02:05:02.549Z,57.06
2019-05-18T02:10:03.034Z,57.07
2019-05-18T02:15:02.532Z,57.11
2019-05-18T02:20:03.023Z,57.17
2019-05-18T02:25:02.495Z,57.28
2019-05-18T02:30:02.984Z,57.27
2019-05-18T02:35:02.543Z,57.38
2019-05-18T02:40:03.090Z,57.42
2019-05-18T02:45:02.575Z,57.45
2019-05-18T02:50:03.115Z,57.54
2019-05-18T02:55:02.753Z,57.6
2019-05-18T03:00:03.301Z,57.62
2019-05-18T03:05:02.797Z,57.63
2019-05-18T03:10:03.363Z,57.58
2019-05-18T03:15:02.872Z,57.63
2019-05-18T03:20:03.327Z,57.71
2019-05-18T03:25:02.864Z,57.76
2019-05-18T03:30:03.402Z,57.83
2019-05-18T03:36:06.844Z,57.83
2019-05-18T03:40:03.339Z,57.86
2019-05-18T03:45:02.773Z,57.89
2019-05-18T03:50:03.217Z,57.92
2019-05-18T03:55:02.738Z,57.92
2019-05-18T04:00:03.293Z,57.96
2019-05-18T04:05:02.816Z,57.99
2019-05-18T04:10:03.296Z,57.99
2019-05-18T04:15:02.768Z,57.97
2019-05-18T04:20:03.316Z,57.95
2019-05-18T04:25:02.839Z,57.96
2019-05-18T04:30:02.664Z,57.91
2019-05-18T04:35:03.208Z,57.95
2019-05-18T04:40:02.748Z,57.9
2019-05-18T04:45:03.280Z,57.98
2019-05-18T04:50:05.783Z,57.94
2019-05-18T04:55:02.629Z,57.93
2019-05-18T05:00:03.168Z,58.0
2019-05-18T05:05:02.729Z,58.05
2019-05-18T05:10:04.759Z,58.09
2019-05-18T05:15:03.373Z,58.04
2019-05-18T05:20:02.891Z,58.03
2019-05-18T05:25:03.478Z,58.12
2019-05-18T05:30:02.961Z,58.16
2019-05-18T05:35:03.570Z,58.43
2019-05-18T05:40:03.128Z,58.66
2019-05-18T05:45:02.577Z,59.25
2019-05-18T05:50:03.104Z,59.45
2019-05-18T05:55:02.629Z,59.4
2019-05-18T06:00:03.089Z,59.38
2019-05-18T06:05:02.542Z,59.22
2019-05-18T06:10:03.026Z,59.26
2019-05-18T06:15:02.545Z,59.23
2019-05-18T06:20:03.089Z,59.18
2019-05-18T06:25:04.208Z,59.06
2019-05-18T06:30:02.640Z,59.01
2019-05-18T06:35:03.203Z,58.96
2019-05-18T06:40:02.717Z,58.93
2019-05-18T06:45:03.161Z,58.9
2019-05-18T06:50:02.673Z,58.86
2019-05-18T06:55:03.440Z,58.76
2019-05-18T07:00:02.983Z,58.7
2019-05-18T07:05:02.480Z,58.67
2019-05-18T07:10:03.035Z,58.61
2019-05-18T07:15:02.656Z,58.64
2019-05-18T07:20:03.213Z,58.61
2019-05-18T07:25:02.857Z,58.58
2019-05-18T07:30:03.364Z,58.5
2019-05-18T07:35:02.886Z,58.46
2019-05-18T07:40:03.442Z,58.72
2019-05-18T07:45:02.965Z,59.14
2019-05-18T07:50:02.712Z,59.28
2019-05-18T07:55:03.177Z,59.29
2019-05-18T08:00:02.660Z,59.46
2019-05-18T08:05:03.201Z,59.65
2019-05-18T08:10:02.809Z,59.87
2019-05-18T08:15:03.387Z,60.27
2019-05-18T08:20:02.973Z,60.41
2019-05-18T08:25:02.527Z,60.19
2019-05-18T08:30:03.048Z,60.75
2019-05-18T08:35:02.538Z,61.06
2019-05-18T08:40:03.119Z,60.83
2019-05-18T08:45:02.628Z,61.1
2019-05-18T08:50:03.171Z,60.75
2019-05-18T08:55:02.742Z,60.79
2019-05-18T09:00:03.260Z,60.57
2019-05-18T09:05:04.816Z,60.33
2019-05-18T09:10:02.708Z,60.37
2019-05-18T09:15:03.199Z,60.25
2019-05-18T09:20:02.794Z,60.09
2019-05-18T09:25:03.338Z,59.61
2019-05-18T09:30:03.127Z,59.22
2019-05-18T09:35:02.699Z,58.86
2019-05-18T09:40:03.202Z,58.47
2019-05-18T09:45:02.748Z,58.22
2019-05-18T09:50:03.320Z,57.74
2019-05-18T09:55:02.784Z,57.46
2019-05-18T10:00:03.344Z,57.29
2019-05-18T10:05:02.852Z,56.77
2019-05-18T10:10:03.410Z,56.36
2019-05-18T10:15:03.071Z,55.82
2019-05-18T10:20:02.646Z,55.49
2019-05-18T10:25:03.220Z,55.24
2019-05-18T10:30:02.776Z,54.85
2019-05-18T10:35:03.269Z,53.98
2019-05-18T10:40:02.812Z,53.46
2019-05-18T10:45:03.326Z,53.37
2019-05-18T10:50:02.862Z,53.02
2019-05-18T10:55:03.390Z,52.65
2019-05-18T11:00:02.921Z,52.49
2019-05-18T11:05:02.466Z,52.39
2019-05-18T11:10:02.968Z,52.02
2019-05-18T11:15:02.549Z,51.92
2019-05-18T11:20:03.077Z,51.84
2019-05-18T11:25:02.594Z,51.44
2019-05-18T11:30:03.184Z,50.73
2019-05-18T11:35:02.767Z,50.81
2019-05-18T11:40:03.318Z,50.69
2019-05-18T11:45:02.818Z,50.7
2019-05-18T11:50:03.405Z,50.08
2019-05-18T11:55:02.965Z,49.43
2019-05-18T12:00:02.521Z,49.82
2019-05-18T12:05:03.043Z,50.69
2019-05-18T12:10:02.570Z,49.97
2019-05-18T12:15:03.097Z,49.3
2019-05-18T12:20:03.574Z,49.07
2019-05-18T12:25:03.081Z,49.17
2019-05-18T12:30:02.618Z,47.76
2019-05-18T12:35:02.307Z,46.84
2019-05-18T12:40:02.854Z,45.87
2019-05-18T12:45:03.404Z,45.13
2019-05-18T12:50:02.915Z,45.37
2019-05-18T12:55:03.457Z,46.83
2019-05-18T13:00:02.983Z,44.22
2019-05-18T13:05:02.492Z,43.67
2019-05-18T13:10:34.577Z,43.09
2019-05-18T13:15:03.179Z,42.81
2019-05-18T13:20:02.700Z,42.64
2019-05-18T13:25:03.239Z,42.63
2019-05-18T13:30:02.727Z,41.93
2019-05-18T13:35:03.302Z,41.86
2019-05-18T13:40:02.738Z,42.11
2019-05-18T13:45:03.266Z,43.42
2019-05-18T13:50:02.737Z,46.77
2019-05-18T13:55:04.795Z,43.76
2019-05-18T14:00:02.655Z,42.6
2019-05-18T14:05:03.207Z,40.56
2019-05-18T14:10:02.667Z,40.56
2019-05-18T14:15:03.157Z,38.91
2019-05-18T14:20:02.701Z,39.07
2019-05-18T14:25:18.256Z,36.76
2019-05-18T14:30:03.112Z,36.46
2019-05-18T14:35:02.629Z,32.43
2019-05-18T14:40:03.220Z,31.65
2019-05-18T14:45:02.694Z,31.29
2019-05-18T14:50:03.187Z,32.66
2019-05-18T14:55:02.739Z,32.53
2019-05-18T15:00:03.345Z,32.52
2019-05-18T15:05:02.842Z,32.55
2019-05-18T15:10:03.422Z,33.23
2019-05-18T15:15:02.944Z,33.58
2019-05-18T15:20:03.484Z,34.01
2019-05-18T15:25:03.064Z,34.38
2019-05-18T15:30:02.673Z,34.86
2019-05-18T15:35:03.256Z,35.16
2019-05-18T15:40:02.760Z,35.36
2019-05-18T15:45:02.652Z,36.11
2019-05-18T15:50:03.263Z,36.08
2019-05-18T15:55:02.716Z,36.35
2019-05-18T16:00:06.460Z,36.31
2019-05-18T16:05:03.268Z,36.38
2019-05-18T16:10:02.770Z,36.82
2019-05-18T16:15:02.538Z,37.18
2019-05-18T16:20:03.421Z,37.24
2019-05-18T16:25:03.002Z,37.4
2019-05-18T16:30:02.500Z,37.94
2019-05-18T16:35:03.125Z,37.96
2019-05-18T16:40:02.664Z,38.6
2019-05-18T16:45:03.161Z,38.29
2019-05-18T16:50:02.729Z,38.19
2019-05-18T16:55:03.314Z,38.59
2019-05-18T17:00:02.806Z,38.91
2019-05-18T17:05:03.375Z,39.26
2019-05-18T17:10:02.881Z,39.32
2019-05-18T17:15:03.685Z,39.58
2019-05-18T17:20:03.268Z,39.89
2019-05-18T17:25:02.756Z,39.97
2019-05-18T17:30:03.354Z,39.89
2019-05-18T17:35:02.821Z,40.08
2019-05-18T17:40:03.404Z,40.73
2019-05-18T17:45:02.850Z,41.74
2019-05-18T17:50:03.489Z,42.63
2019-05-18T17:55:02.943Z,43.01
2019-05-18T18:00:03.445Z,43.67
2019-05-18T18:05:02.888Z,43.38
2019-05-18T18:10:03.504Z,43.55
2019-05-18T18:15:02.997Z,43.6
2019-05-18T18:20:02.509Z,43.8
2019-05-18T18:25:03.065Z,43.91
2019-05-18T18:30:02.585Z,44.13
2019-05-18T18:35:03.125Z,44.51
2019-05-18T18:40:02.653Z,44.72
2019-05-18T18:45:02.317Z,45.15
2019-05-18T18:50:02.859Z,45.43
2019-05-18T18:55:03.340Z,45.82
2019-05-18T19:00:02.877Z,46.04
2019-05-18T19:05:03.513Z,46.39
2019-05-18T19:10:03.091Z,46.49
2019-05-18T19:15:02.564Z,46.97
2019-05-18T19:20:03.143Z,47.19
2019-05-18T19:25:02.613Z,47.41
2019-05-18T19:30:03.430Z,47.61
2019-05-18T19:35:03.068Z,47.66
2019-05-18T19:40:02.637Z,47.9
2019-05-18T19:45:03.224Z,48.07
2019-05-18T19:50:02.829Z,48.12
2019-05-18T19:55:03.323Z,48.44
2019-05-18T20:00:03.004Z,48.53
2019-05-18T20:05:07.947Z,48.77
2019-05-18T20:10:03.168Z,48.86
2019-05-18T20:15:02.691Z,49.03
2019-05-18T20:20:03.250Z,49.13
2019-05-18T20:25:02.838Z,49.32
2019-05-18T20:30:03.425Z,49.42
2019-05-18T20:35:02.900Z,49.52
2019-05-18T20:40:03.485Z,49.58
2019-05-18T20:45:02.967Z,49.77
2019-05-18T20:50:02.484Z,49.85
2019-05-18T20:55:03.046Z,50.13
2019-05-18T21:00:02.618Z,50.26
2019-05-18T21:05:03.301Z,50.58
2019-05-18T21:10:02.773Z,50.72
2019-05-18T21:15:02.795Z,50.76
2019-05-18T21:20:03.324Z,50.95
2019-05-18T21:25:02.805Z,51.16
2019-05-18T21:30:03.287Z,51.42
2019-05-18T21:35:02.799Z,51.67
2019-05-18T21:40:03.457Z,51.89
2019-05-18T21:45:03.036Z,52.12
2019-05-18T21:50:02.577Z,52.16
2019-05-18T21:55:03.060Z,52.25
2019-05-18T22:00:02.672Z,52.32
2019-05-18T22:05:03.186Z,52.37
2019-05-18T22:10:01.846Z,52.42
2019-05-18T22:15:03.407Z,52.37
2019-05-18T22:20:02.872Z,52.32
2019-05-18T22:25:03.456Z,52.35
2019-05-18T22:30:02.927Z,52.43
2019-05-18T22:35:03.482Z,52.58
2019-05-18T22:40:03.017Z,52.67
2019-05-18T22:45:02.474Z,52.78
2019-05-18T22:50:02.980Z,52.8
2019-05-18T22:55:02.442Z,52.77
2019-05-18T23:00:08.037Z,52.69
2019-05-18T23:05:03.382Z,52.72
2019-05-18T23:10:02.956Z,52.71
2019-05-18T23:15:03.449Z,52.64
2019-05-18T23:20:02.960Z,52.65
2019-05-18T23:25:03.513Z,52.63
2019-05-18T23:30:03.020Z,52.62
2019-05-18T23:35:02.555Z,52.61
2019-05-18T23:40:03.106Z,52.56
2019-05-18T23:45:02.608Z,52.63
2019-05-18T23:50:03.057Z,52.67
2019-05-18T23:55:02.694Z,52.69
